Aviation Digital Data Service (ADDS)

Output produced by METARs form (1157 UTC 26 March 2019)
found at http://www.aviationweather.gov/metar/data/
 
METAR text: EFMA 261150Z AUTO 34010KT 300V020 9999 FEW038 05/M04 Q1014
Conditions at: EFMA (MARIEHAMN/ALAND , FI) observed 1150 UTC 26 March 2019
Temperature: 5.0°C (41°F)
Dewpoint: -4.0°C (25°F) [RH = 52%]
Pressure (altimeter): 29.94 inches Hg (1014.0 mb)
Winds: from the NNW (340 degrees) at 12 MPH (10 knots; 5.1 m/s)
Visibility: 6 or more miles (10+ km)
Ceiling: at least 12,000 feet AGL
Clouds: few clouds at 3800 feet AGL
Weather: no significant weather observed at this time

METAR text: EFMA 261120Z 35010KT 320V030 9999 SCT035 05/M05 Q1013
Conditions at: EFMA (MARIEHAMN/ALAND , FI) observed 1120 UTC 26 March 2019
Temperature: 5.0°C (41°F)
Dewpoint: -5.0°C (23°F) [RH = 48%]
Pressure (altimeter): 29.91 inches Hg (1013.0 mb)
Winds: from the N (350 degrees) at 12 MPH (10 knots; 5.1 m/s)
Visibility: 6 or more miles (10+ km)
Ceiling: at least 12,000 feet AGL
Clouds: scattered clouds at 3500 feet AGL
Weather: no significant weather observed at this time

METAR text: EFMA 261050Z 02010KT 340V050 9999 FEW037 05/M05 Q1013
Conditions at: EFMA (MARIEHAMN/ALAND , FI) observed 1050 UTC 26 March 2019
Temperature: 5.0°C (41°F)
Dewpoint: -5.0°C (23°F) [RH = 48%]
Pressure (altimeter): 29.91 inches Hg (1013.0 mb)
Winds: from the NNE (20 degrees) at 12 MPH (10 knots; 5.1 m/s)
Visibility: 6 or more miles (10+ km)
Ceiling: at least 12,000 feet AGL
Clouds: few clouds at 3700 feet AGL
Weather: no significant weather observed at this time

METAR text: EFMA 261020Z 02010KT 340V060 CAVOK 04/M04 Q1012
Conditions at: EFMA (MARIEHAMN/ALAND , FI) observed 1020 UTC 26 March 2019
Temperature: 4.0°C (39°F)
Dewpoint: -4.0°C (25°F) [RH = 56%]
Pressure (altimeter): 29.88 inches Hg (1012.0 mb)
Winds: from the NNE (20 degrees) at 12 MPH (10 knots; 5.1 m/s)
Visibility: 6 or more miles (10+ km)
Ceiling: ceiling and visibility are OK
Clouds: unknown
Weather: no significant weather observed at this time

METAR text: EFMA 260950Z 03010KT CAVOK 04/M02 Q1012
Conditions at: EFMA (MARIEHAMN/ALAND , FI) observed 0950 UTC 26 March 2019
Temperature: 4.0°C (39°F)
Dewpoint: -2.0°C (28°F) [RH = 65%]
Pressure (altimeter): 29.88 inches Hg (1012.0 mb)
Winds: from the NNE (30 degrees) at 12 MPH (10 knots; 5.1 m/s)
Visibility: 6 or more miles (10+ km)
Ceiling: ceiling and visibility are OK
Clouds: unknown
Weather: no significant weather observed at this time

METAR text: EFMA 260920Z 01011KT 320V040 9999 SCT015 03/M01 Q1011
Conditions at: EFMA (MARIEHAMN/ALAND , FI) observed 0920 UTC 26 March 2019
Temperature: 3.0°C (37°F)
Dewpoint: -1.0°C (30°F) [RH = 75%]
Pressure (altimeter): 29.85 inches Hg (1011.0 mb)
Winds: from the N (10 degrees) at 13 MPH (11 knots; 5.7 m/s)
Visibility: 6 or more miles (10+ km)
Ceiling: at least 12,000 feet AGL
Clouds: scattered clouds at 1500 feet AGL
Weather: no significant weather observed at this time

METAR text: EFMA 260850Z 02012KT 9999 FEW012 03/M01 Q1011
Conditions at: EFMA (MARIEHAMN/ALAND , FI) observed 0850 UTC 26 March 2019
Temperature: 3.0°C (37°F)
Dewpoint: -1.0°C (30°F) [RH = 75%]
Pressure (altimeter): 29.85 inches Hg (1011.0 mb)
Winds: from the NNE (20 degrees) at 14 MPH (12 knots; 6.2 m/s)
Visibility: 6 or more miles (10+ km)
Ceiling: at least 12,000 feet AGL
Clouds: few clouds at 1200 feet AGL
Weather: no significant weather observed at this time

METAR text: EFMA 260820Z 03011KT 360V060 9999 BKN010 02/M01 Q1010
Conditions at: EFMA (MARIEHAMN/ALAND , FI) observed 0820 UTC 26 March 2019
Temperature: 2.0°C (36°F)
Dewpoint: -1.0°C (30°F) [RH = 80%]
Pressure (altimeter): 29.82 inches Hg (1010.0 mb)
Winds: from the NNE (30 degrees) at 13 MPH (11 knots; 5.7 m/s)
Visibility: 6 or more miles (10+ km)
Ceiling: 1000 feet AGL
Clouds: broken clouds at 1000 feet AGL
Weather: no significant weather observed at this time

METAR text: EFMA 260750Z 02009KT 9999 BKN007 01/M01 Q1009
Conditions at: EFMA (MARIEHAMN/ALAND , FI) observed 0750 UTC 26 March 2019
Temperature: 1.0°C (34°F)
Dewpoint: -1.0°C (30°F) [RH = 86%]
Pressure (altimeter): 29.79 inches Hg (1009.0 mb)
Winds: from the NNE (20 degrees) at 10 MPH (9 knots; 4.6 m/s)
Visibility: 6 or more miles (10+ km)
Ceiling: 700 feet AGL
Clouds: broken clouds at 700 feet AGL
Weather: no significant weather observed at this time

METAR text: EFMA 260720Z AUTO 03007KT 350V060 9999 -SHSN BKN006 01/M01 Q1009
Conditions at: EFMA (MARIEHAMN/ALAND , FI) observed 0720 UTC 26 March 2019
Temperature: 1.0°C (34°F)
Dewpoint: -1.0°C (30°F) [RH = 86%]
Pressure (altimeter): 29.79 inches Hg (1009.0 mb)
Winds: from the NNE (30 degrees) at 8 MPH (7 knots; 3.6 m/s)
Visibility: 6 or more miles (10+ km)
Ceiling: 600 feet AGL
Clouds: broken clouds at 600 feet AGL
Weather: -SHSN  (light snow showers)

METAR text: EFMA 260650Z AUTO 36007KT 330V030 9999 -SHSN SCT006 SCT008 BKN023 00/M01 Q1008
Conditions at: EFMA (MARIEHAMN/ALAND , FI) observed 0650 UTC 26 March 2019
Temperature: 0.0°C (32°F)
Dewpoint: -1.0°C (30°F) [RH = 93%]
Pressure (altimeter): 29.76 inches Hg (1008.0 mb)
Winds: from the N (360 degrees) at 8 MPH (7 knots; 3.6 m/s)
Visibility: 6 or more miles (10+ km)
Ceiling: 2300 feet AGL
Clouds: scattered clouds at 600 feet AGL
scattered clouds at 800 feet AGL
broken clouds at 2300 feet AGL
Weather: -SHSN  (light snow showers)

METAR text: EFMA 260620Z AUTO 01008KT 330V050 9999 -SHSN SCT008 BKN042 00/M02 Q1008
Conditions at: EFMA (MARIEHAMN/ALAND , FI) observed 0620 UTC 26 March 2019
Temperature: 0.0°C (32°F)
Dewpoint: -2.0°C (28°F) [RH = 86%]
Pressure (altimeter): 29.76 inches Hg (1008.0 mb)
Winds: from the N (10 degrees) at 9 MPH (8 knots; 4.1 m/s)
Visibility: 6 or more miles (10+ km)
Ceiling: 4200 feet AGL
Clouds: scattered clouds at 800 feet AGL
broken clouds at 4200 feet AGL
Weather: -SHSN  (light snow showers)

METAR text: EFMA 260550Z AUTO 36006KT 320V030 9999 -SHSN OVC037 00/M02 Q1007
Conditions at: EFMA (MARIEHAMN/ALAND , FI) observed 0550 UTC 26 March 2019
Temperature: 0.0°C (32°F)
Dewpoint: -2.0°C (28°F) [RH = 86%]
Pressure (altimeter): 29.73 inches Hg (1007.0 mb)
Winds: from the N (360 degrees) at 7 MPH (6 knots; 3.1 m/s)
Visibility: 6 or more miles (10+ km)
Ceiling: 3700 feet AGL
Clouds: overcast cloud deck at 3700 feet AGL
Weather: -SHSN  (light snow showers)

METAR text: EFMA 260520Z AUTO 01006KT 340V040 9999 -SHSN OVC021 M00/M02 Q1007
Conditions at: EFMA (MARIEHAMN/ALAND , FI) observed 0520 UTC 26 March 2019
Temperature: 0.0°C (32°F)
Dewpoint: -2.0°C (28°F) [RH = 86%]
Pressure (altimeter): 29.73 inches Hg (1007.0 mb)
Winds: from the N (10 degrees) at 7 MPH (6 knots; 3.1 m/s)
Visibility: 6 or more miles (10+ km)
Ceiling: 2100 feet AGL
Clouds: overcast cloud deck at 2100 feet AGL
Weather: -SHSN  (light snow showers)

METAR text: EFMA 260450Z AUTO 34005KT 9999 BKN026 BKN071 M01/M02 Q1006
Conditions at: EFMA (MARIEHAMN/ALAND , FI) observed 0450 UTC 26 March 2019
Temperature: -1.0°C (30°F)
Dewpoint: -2.0°C (28°F) [RH = 93%]
Pressure (altimeter): 29.70 inches Hg (1006.0 mb)
Winds: from the NNW (340 degrees) at 6 MPH (5 knots; 2.6 m/s)
Visibility: 6 or more miles (10+ km)
Ceiling: 2600 feet AGL
Clouds: broken clouds at 2600 feet AGL
broken clouds at 7100 feet AGL
Weather: no significant weather observed at this time

METAR text: EFMA 260420Z AUTO 31004KT CAVOK M01/M02 Q1005
Conditions at: EFMA (MARIEHAMN/ALAND , FI) observed 0420 UTC 26 March 2019
Temperature: -1.0°C (30°F)
Dewpoint: -2.0°C (28°F) [RH = 93%]
Pressure (altimeter): 29.68 inches Hg (1005.0 mb)
Winds: from the NW (310 degrees) at 5 MPH (4 knots; 2.1 m/s)
Visibility: 6 or more miles (10+ km)
Ceiling: ceiling and visibility are OK
Clouds: unknown
Weather: no significant weather observed at this time

METAR text: EFMA 260350Z AUTO 25004KT 220V290 CAVOK M01/M02 Q1005
Conditions at: EFMA (MARIEHAMN/ALAND , FI) observed 0350 UTC 26 March 2019
Temperature: -1.0°C (30°F)
Dewpoint: -2.0°C (28°F) [RH = 93%]
Pressure (altimeter): 29.68 inches Hg (1005.0 mb)
Winds: from the WSW (250 degrees) at 5 MPH (4 knots; 2.1 m/s)
Visibility: 6 or more miles (10+ km)
Ceiling: ceiling and visibility are OK
Clouds: unknown
Weather: no significant weather observed at this time

METAR text: EFMA 260320Z AUTO 26003KT 230V290 9999 SCT004 SCT029 M00/M01 Q1005
Conditions at: EFMA (MARIEHAMN/ALAND , FI) observed 0320 UTC 26 March 2019
Temperature: 0.0°C (32°F)
Dewpoint: -1.0°C (30°F) [RH = 93%]
Pressure (altimeter): 29.68 inches Hg (1005.0 mb)
Winds: from the W (260 degrees) at 3 MPH (3 knots; 1.5 m/s)
Visibility: 6 or more miles (10+ km)
Ceiling: at least 12,000 feet AGL
Clouds: scattered clouds at 400 feet AGL
scattered clouds at 2900 feet AGL
Weather: no significant weather observed at this time

METAR text: EFMA 260250Z AUTO 21002KT 9999 BKN006 OVC044 M01/M01 Q1005
Conditions at: EFMA (MARIEHAMN/ALAND , FI) observed 0250 UTC 26 March 2019
Temperature: -1.0°C (30°F)
Dewpoint: -1.0°C (30°F) [RH = 100%]
Pressure (altimeter): 29.68 inches Hg (1005.0 mb)
Winds: from the SSW (210 degrees) at 2 MPH (2 knots; 1.0 m/s)
Visibility: 6 or more miles (10+ km)
Ceiling: 600 feet AGL
Clouds: broken clouds at 600 feet AGL
overcast cloud deck at 4400 feet AGL
Weather: no significant weather observed at this time

METAR text: EFMA 260220Z AUTO VRB02KT 9999 -SN SCT005 OVC061 M00/M01 Q1005
Conditions at: EFMA (MARIEHAMN/ALAND , FI) observed 0220 UTC 26 March 2019
Temperature: 0.0°C (32°F)
Dewpoint: -1.0°C (30°F) [RH = 93%]
Pressure (altimeter): 29.68 inches Hg (1005.0 mb)
Winds: variable direction winds at 2 MPH (2 knots; 1.0 m/s)
Visibility: 6 or more miles (10+ km)
Ceiling: 6100 feet AGL
Clouds: scattered clouds at 500 feet AGL
overcast cloud deck at 6100 feet AGL
Weather: -SN  (light snow)

METAR text: EFMA 260150Z AUTO 29003KT 260V320 9000 -SHSN OVC006 M00/M01 Q1006
Conditions at: EFMA (MARIEHAMN/ALAND , FI) observed 0150 UTC 26 March 2019
Temperature: 0.0°C (32°F)
Dewpoint: -1.0°C (30°F) [RH = 93%]
Pressure (altimeter): 29.70 inches Hg (1006.0 mb)
Winds: from the WNW (290 degrees) at 3 MPH (3 knots; 1.5 m/s)
Visibility: 6 miles ( 9 km)
Ceiling: 600 feet AGL
Clouds: overcast cloud deck at 600 feet AGL
Weather: -SHSN  (light snow showers)

METAR text: EFMA 260120Z AUTO 29008KT 260V320 2600 -FZDZSN OVC014 M00/M01 Q1006
Conditions at: EFMA (MARIEHAMN/ALAND , FI) observed 0120 UTC 26 March 2019
Temperature: 0.0°C (32°F)
Dewpoint: -1.0°C (30°F) [RH = 93%]
Pressure (altimeter): 29.70 inches Hg (1006.0 mb)
Winds: from the WNW (290 degrees) at 9 MPH (8 knots; 4.1 m/s)
Visibility: 1.62 miles (2.61 km)
Ceiling: 1400 feet AGL
Clouds: overcast cloud deck at 1400 feet AGL
Weather: -FZDZ SN  (light freezing drizzle, moderate snow)

METAR text: EFMA 260050Z AUTO 29005KT 220V320 CAVOK 01/M04 Q1006
Conditions at: EFMA (MARIEHAMN/ALAND , FI) observed 0050 UTC 26 March 2019
Temperature: 1.0°C (34°F)
Dewpoint: -4.0°C (25°F) [RH = 69%]
Pressure (altimeter): 29.70 inches Hg (1006.0 mb)
Winds: from the WNW (290 degrees) at 6 MPH (5 knots; 2.6 m/s)
Visibility: 6 or more miles (10+ km)
Ceiling: ceiling and visibility are OK
Clouds: unknown
Weather: no significant weather observed at this time

METAR text: EFMA 260020Z AUTO VRB02KT CAVOK M01/M04 Q1007
Conditions at: EFMA (MARIEHAMN/ALAND , FI) observed 0020 UTC 26 March 2019
Temperature: -1.0°C (30°F)
Dewpoint: -4.0°C (25°F) [RH = 80%]
Pressure (altimeter): 29.73 inches Hg (1007.0 mb)
Winds: variable direction winds at 2 MPH (2 knots; 1.0 m/s)
Visibility: 6 or more miles (10+ km)
Ceiling: ceiling and visibility are OK
Clouds: unknown
Weather: no significant weather observed at this time

METAR text: EFMA 252350Z AUTO VRB02KT CAVOK M00/M04 Q1007
Conditions at: EFMA (MARIEHAMN/ALAND , FI) observed 2350 UTC 25 March 2019
Temperature: 0.0°C (32°F)
Dewpoint: -4.0°C (25°F) [RH = 74%]
Pressure (altimeter): 29.73 inches Hg (1007.0 mb)
Winds: variable direction winds at 2 MPH (2 knots; 1.0 m/s)
Visibility: 6 or more miles (10+ km)
Ceiling: ceiling and visibility are OK
Clouds: unknown
Weather: no significant weather observed at this time

METAR text: EFMA 252320Z AUTO 23003KT 190V260 CAVOK M01/M05 Q1007
Conditions at: EFMA (MARIEHAMN/ALAND , FI) observed 2320 UTC 25 March 2019
Temperature: -1.0°C (30°F)
Dewpoint: -5.0°C (23°F) [RH = 74%]
Pressure (altimeter): 29.73 inches Hg (1007.0 mb)
Winds: from the SW (230 degrees) at 3 MPH (3 knots; 1.5 m/s)
Visibility: 6 or more miles (10+ km)
Ceiling: ceiling and visibility are OK
Clouds: unknown
Weather: no significant weather observed at this time

METAR text: EFMA 252250Z AUTO VRB01KT CAVOK M03/M05 Q1008
Conditions at: EFMA (MARIEHAMN/ALAND , FI) observed 2250 UTC 25 March 2019
Temperature: -3.0°C (27°F)
Dewpoint: -5.0°C (23°F) [RH = 86%]
Pressure (altimeter): 29.76 inches Hg (1008.0 mb)
Winds: variable direction winds at 1 MPH (1 knots; 0.5 m/s)
Visibility: 6 or more miles (10+ km)
Ceiling: ceiling and visibility are OK
Clouds: unknown
Weather: no significant weather observed at this time

METAR text: EFMA 252220Z AUTO VRB01KT CAVOK M03/M06 Q1008
Conditions at: EFMA (MARIEHAMN/ALAND , FI) observed 2220 UTC 25 March 2019
Temperature: -3.0°C (27°F)
Dewpoint: -6.0°C (21°F) [RH = 80%]
Pressure (altimeter): 29.76 inches Hg (1008.0 mb)
Winds: variable direction winds at 1 MPH (1 knots; 0.5 m/s)
Visibility: 6 or more miles (10+ km)
Ceiling: ceiling and visibility are OK
Clouds: unknown
Weather: no significant weather observed at this time

METAR text: EFMA 252150Z AUTO 28004KT CAVOK 00/M05 Q1009
Conditions at: EFMA (MARIEHAMN/ALAND , FI) observed 2150 UTC 25 March 2019
Temperature: 0.0°C (32°F)
Dewpoint: -5.0°C (23°F) [RH = 69%]
Pressure (altimeter): 29.79 inches Hg (1009.0 mb)
Winds: from the W (280 degrees) at 5 MPH (4 knots; 2.1 m/s)
Visibility: 6 or more miles (10+ km)
Ceiling: ceiling and visibility are OK
Clouds: unknown
Weather: no significant weather observed at this time

METAR text: EFMA 252120Z AUTO 28005KT 250V310 CAVOK 01/M05 Q1009
Conditions at: EFMA (MARIEHAMN/ALAND , FI) observed 2120 UTC 25 March 2019
Temperature: 1.0°C (34°F)
Dewpoint: -5.0°C (23°F) [RH = 64%]
Pressure (altimeter): 29.79 inches Hg (1009.0 mb)
Winds: from the W (280 degrees) at 6 MPH (5 knots; 2.6 m/s)
Visibility: 6 or more miles (10+ km)
Ceiling: ceiling and visibility are OK
Clouds: unknown
Weather: no significant weather observed at this time

METAR text: EFMA 252050Z AUTO 28004KT 230V320 CAVOK M00/M05 Q1009
Conditions at: EFMA (MARIEHAMN/ALAND , FI) observed 2050 UTC 25 March 2019
Temperature: 0.0°C (32°F)
Dewpoint: -5.0°C (23°F) [RH = 69%]
Pressure (altimeter): 29.79 inches Hg (1009.0 mb)
Winds: from the W (280 degrees) at 5 MPH (4 knots; 2.1 m/s)
Visibility: 6 or more miles (10+ km)
Ceiling: ceiling and visibility are OK
Clouds: unknown
Weather: no significant weather observed at this time

METAR text: EFMA 252020Z AUTO 29003KT 240V340 CAVOK M00/M05 Q1010
Conditions at: EFMA (MARIEHAMN/ALAND , FI) observed 2020 UTC 25 March 2019
Temperature: 0.0°C (32°F)
Dewpoint: -5.0°C (23°F) [RH = 69%]
Pressure (altimeter): 29.82 inches Hg (1010.0 mb)
Winds: from the WNW (290 degrees) at 3 MPH (3 knots; 1.5 m/s)
Visibility: 6 or more miles (10+ km)
Ceiling: ceiling and visibility are OK
Clouds: unknown
Weather: no significant weather observed at this time

METAR text: EFMA 251950Z AUTO VRB02KT CAVOK M01/M04 Q1010
Conditions at: EFMA (MARIEHAMN/ALAND , FI) observed 1950 UTC 25 March 2019
Temperature: -1.0°C (30°F)
Dewpoint: -4.0°C (25°F) [RH = 80%]
Pressure (altimeter): 29.82 inches Hg (1010.0 mb)
Winds: variable direction winds at 2 MPH (2 knots; 1.0 m/s)
Visibility: 6 or more miles (10+ km)
Ceiling: ceiling and visibility are OK
Clouds: unknown
Weather: no significant weather observed at this time

METAR text: EFMA 251920Z AUTO VRB01KT CAVOK M02/M06 Q1010
Conditions at: EFMA (MARIEHAMN/ALAND , FI) observed 1920 UTC 25 March 2019
Temperature: -2.0°C (28°F)
Dewpoint: -6.0°C (21°F) [RH = 74%]
Pressure (altimeter): 29.82 inches Hg (1010.0 mb)
Winds: variable direction winds at 1 MPH (1 knots; 0.5 m/s)
Visibility: 6 or more miles (10+ km)
Ceiling: ceiling and visibility are OK
Clouds: unknown
Weather: no significant weather observed at this time

METAR text: EFMA 251850Z AUTO VRB01KT CAVOK M02/M05 Q1010
Conditions at: EFMA (MARIEHAMN/ALAND , FI) observed 1850 UTC 25 March 2019
Temperature: -2.0°C (28°F)
Dewpoint: -5.0°C (23°F) [RH = 80%]
Pressure (altimeter): 29.82 inches Hg (1010.0 mb)
Winds: variable direction winds at 1 MPH (1 knots; 0.5 m/s)
Visibility: 6 or more miles (10+ km)
Ceiling: ceiling and visibility are OK
Clouds: unknown
Weather: no significant weather observed at this time

METAR text: EFMA 251820Z AUTO 27002KT CAVOK M01/M05 Q1010
Conditions at: EFMA (MARIEHAMN/ALAND , FI) observed 1820 UTC 25 March 2019
Temperature: -1.0°C (30°F)
Dewpoint: -5.0°C (23°F) [RH = 74%]
Pressure (altimeter): 29.82 inches Hg (1010.0 mb)
Winds: from the W (270 degrees) at 2 MPH (2 knots; 1.0 m/s)
Visibility: 6 or more miles (10+ km)
Ceiling: ceiling and visibility are OK
Clouds: unknown
Weather: no significant weather observed at this time

METAR text: EFMA 251750Z AUTO 30004KT CAVOK 00/M05 Q1011
Conditions at: EFMA (MARIEHAMN/ALAND , FI) observed 1750 UTC 25 March 2019
Temperature: 0.0°C (32°F)
Dewpoint: -5.0°C (23°F) [RH = 69%]
Pressure (altimeter): 29.85 inches Hg (1011.0 mb)
Winds: from the WNW (300 degrees) at 5 MPH (4 knots; 2.1 m/s)
Visibility: 6 or more miles (10+ km)
Ceiling: ceiling and visibility are OK
Clouds: unknown
Weather: no significant weather observed at this time

METAR text: EFMA 251720Z AUTO 31004KT 270V350 CAVOK 01/M04 Q1011
Conditions at: EFMA (MARIEHAMN/ALAND , FI) observed 1720 UTC 25 March 2019
Temperature: 1.0°C (34°F)
Dewpoint: -4.0°C (25°F) [RH = 69%]
Pressure (altimeter): 29.85 inches Hg (1011.0 mb)
Winds: from the NW (310 degrees) at 5 MPH (4 knots; 2.1 m/s)
Visibility: 6 or more miles (10+ km)
Ceiling: ceiling and visibility are OK
Clouds: unknown
Weather: no significant weather observed at this time

METAR text: EFMA 251650Z AUTO 33007KT 290V360 CAVOK 02/M04 Q1011
Conditions at: EFMA (MARIEHAMN/ALAND , FI) observed 1650 UTC 25 March 2019
Temperature: 2.0°C (36°F)
Dewpoint: -4.0°C (25°F) [RH = 64%]
Pressure (altimeter): 29.85 inches Hg (1011.0 mb)
Winds: from the NNW (330 degrees) at 8 MPH (7 knots; 3.6 m/s)
Visibility: 6 or more miles (10+ km)
Ceiling: ceiling and visibility are OK
Clouds: unknown
Weather: no significant weather observed at this time

METAR text: EFMA 251620Z AUTO 33009KT 300V360 CAVOK 02/M05 Q1011
Conditions at: EFMA (MARIEHAMN/ALAND , FI) observed 1620 UTC 25 March 2019
Temperature: 2.0°C (36°F)
Dewpoint: -5.0°C (23°F) [RH = 60%]
Pressure (altimeter): 29.85 inches Hg (1011.0 mb)
Winds: from the NNW (330 degrees) at 10 MPH (9 knots; 4.6 m/s)
Visibility: 6 or more miles (10+ km)
Ceiling: ceiling and visibility are OK
Clouds: unknown
Weather: no significant weather observed at this time

METAR text: EFMA 251550Z AUTO 33013KT 290V010 CAVOK 03/M05 Q1011
Conditions at: EFMA (MARIEHAMN/ALAND , FI) observed 1550 UTC 25 March 2019
Temperature: 3.0°C (37°F)
Dewpoint: -5.0°C (23°F) [RH = 56%]
Pressure (altimeter): 29.85 inches Hg (1011.0 mb)
Winds: from the NNW (330 degrees) at 15 MPH (13 knots; 6.7 m/s)
Visibility: 6 or more miles (10+ km)
Ceiling: ceiling and visibility are OK
Clouds: unknown
Weather: no significant weather observed at this time

METAR text: EFMA 251520Z AUTO 33014G25KT 300V010 CAVOK 03/M05 Q1010
Conditions at: EFMA (MARIEHAMN/ALAND , FI) observed 1520 UTC 25 March 2019
Temperature: 3.0°C (37°F)
Dewpoint: -5.0°C (23°F) [RH = 56%]
Pressure (altimeter): 29.82 inches Hg (1010.0 mb)
Winds: from the NNW (330 degrees) at 16 MPH (14 knots; 7.2 m/s)
gusting to 29 MPH (25 knots; 12.9 m/s)
Visibility: 6 or more miles (10+ km)
Ceiling: ceiling and visibility are OK
Clouds: unknown
Weather: no significant weather observed at this time

METAR text: EFMA 251450Z AUTO 33016G26KT CAVOK 03/M05 Q1010
Conditions at: EFMA (MARIEHAMN/ALAND , FI) observed 1450 UTC 25 March 2019
Temperature: 3.0°C (37°F)
Dewpoint: -5.0°C (23°F) [RH = 56%]
Pressure (altimeter): 29.82 inches Hg (1010.0 mb)
Winds: from the NNW (330 degrees) at 18 MPH (16 knots; 8.2 m/s)
gusting to 30 MPH (26 knots; 13.4 m/s)
Visibility: 6 or more miles (10+ km)
Ceiling: ceiling and visibility are OK
Clouds: unknown
Weather: no significant weather observed at this time

METAR text: EFMA 251420Z AUTO 33016G30KT 290V010 CAVOK 03/M05 Q1010
Conditions at: EFMA (MARIEHAMN/ALAND , FI) observed 1420 UTC 25 March 2019
Temperature: 3.0°C (37°F)
Dewpoint: -5.0°C (23°F) [RH = 56%]
Pressure (altimeter): 29.82 inches Hg (1010.0 mb)
Winds: from the NNW (330 degrees) at 18 MPH (16 knots; 8.2 m/s)
gusting to 34 MPH (30 knots; 15.4 m/s)
Visibility: 6 or more miles (10+ km)
Ceiling: ceiling and visibility are OK
Clouds: unknown
Weather: no significant weather observed at this time

METAR text: EFMA 251350Z AUTO 34018G29KT 290V010 9999 FEW027 03/M05 Q1010
Conditions at: EFMA (MARIEHAMN/ALAND , FI) observed 1350 UTC 25 March 2019
Temperature: 3.0°C (37°F)
Dewpoint: -5.0°C (23°F) [RH = 56%]
Pressure (altimeter): 29.82 inches Hg (1010.0 mb)
Winds: from the NNW (340 degrees) at 21 MPH (18 knots; 9.3 m/s)
gusting to 33 MPH (29 knots; 14.9 m/s)
Visibility: 6 or more miles (10+ km)
Ceiling: at least 12,000 feet AGL
Clouds: few clouds at 2700 feet AGL
Weather: no significant weather observed at this time

METAR text: EFMA 251320Z AUTO 33017G27KT 300V360 9999 FEW027 03/M04 Q1010
Conditions at: EFMA (MARIEHAMN/ALAND , FI) observed 1320 UTC 25 March 2019
Temperature: 3.0°C (37°F)
Dewpoint: -4.0°C (25°F) [RH = 60%]
Pressure (altimeter): 29.82 inches Hg (1010.0 mb)
Winds: from the NNW (330 degrees) at 20 MPH (17 knots; 8.7 m/s)
gusting to 31 MPH (27 knots; 13.9 m/s)
Visibility: 6 or more miles (10+ km)
Ceiling: at least 12,000 feet AGL
Clouds: few clouds at 2700 feet AGL
Weather: no significant weather observed at this time

METAR text: EFMA 251250Z AUTO 34015G27KT 300V030 9999 FEW025 03/M04 Q1010
Conditions at: EFMA (MARIEHAMN/ALAND , FI) observed 1250 UTC 25 March 2019
Temperature: 3.0°C (37°F)
Dewpoint: -4.0°C (25°F) [RH = 60%]
Pressure (altimeter): 29.82 inches Hg (1010.0 mb)
Winds: from the NNW (340 degrees) at 17 MPH (15 knots; 7.7 m/s)
gusting to 31 MPH (27 knots; 13.9 m/s)
Visibility: 6 or more miles (10+ km)
Ceiling: at least 12,000 feet AGL
Clouds: few clouds at 2500 feet AGL
Weather: no significant weather observed at this time

METAR text: EFMA 251220Z AUTO 32016KT 290V350 9999 SCT025 03/M04 Q1010
Conditions at: EFMA (MARIEHAMN/ALAND , FI) observed 1220 UTC 25 March 2019
Temperature: 3.0°C (37°F)
Dewpoint: -4.0°C (25°F) [RH = 60%]
Pressure (altimeter): 29.82 inches Hg (1010.0 mb)
Winds: from the NW (320 degrees) at 18 MPH (16 knots; 8.2 m/s)
Visibility: 6 or more miles (10+ km)
Ceiling: at least 12,000 feet AGL
Clouds: scattered clouds at 2500 feet AGL
Weather: no significant weather observed at this time

METAR text: EFMA 251150Z AUTO 33015KT 280V350 9999 BKN023 03/M04 Q1010
Conditions at: EFMA (MARIEHAMN/ALAND , FI) observed 1150 UTC 25 March 2019
Temperature: 3.0°C (37°F)
Dewpoint: -4.0°C (25°F) [RH = 60%]
Pressure (altimeter): 29.82 inches Hg (1010.0 mb)
Winds: from the NNW (330 degrees) at 17 MPH (15 knots; 7.7 m/s)
Visibility: 6 or more miles (10+ km)
Ceiling: 2300 feet AGL
Clouds: broken clouds at 2300 feet AGL
Weather: no significant weather observed at this time

METAR text: EFMA 251120Z AUTO 34017KT 300V010 9999 SCT024 03/M04 Q1009
Conditions at: EFMA (MARIEHAMN/ALAND , FI) observed 1120 UTC 25 March 2019
Temperature: 3.0°C (37°F)
Dewpoint: -4.0°C (25°F) [RH = 60%]
Pressure (altimeter): 29.79 inches Hg (1009.0 mb)
Winds: from the NNW (340 degrees) at 20 MPH (17 knots; 8.7 m/s)
Visibility: 6 or more miles (10+ km)
Ceiling: at least 12,000 feet AGL
Clouds: scattered clouds at 2400 feet AGL
Weather: no significant weather observed at this time

METAR text: EFMA 251050Z AUTO 33015KT 290V010 9999 FEW024 03/M04 Q1009
Conditions at: EFMA (MARIEHAMN/ALAND , FI) observed 1050 UTC 25 March 2019
Temperature: 3.0°C (37°F)
Dewpoint: -4.0°C (25°F) [RH = 60%]
Pressure (altimeter): 29.79 inches Hg (1009.0 mb)
Winds: from the NNW (330 degrees) at 17 MPH (15 knots; 7.7 m/s)
Visibility: 6 or more miles (10+ km)
Ceiling: at least 12,000 feet AGL
Clouds: few clouds at 2400 feet AGL
Weather: no significant weather observed at this time

METAR text: EFMA 251020Z AUTO 33015KT 300V360 9999 SCT023 03/M04 Q1009
Conditions at: EFMA (MARIEHAMN/ALAND , FI) observed 1020 UTC 25 March 2019
Temperature: 3.0°C (37°F)
Dewpoint: -4.0°C (25°F) [RH = 60%]
Pressure (altimeter): 29.79 inches Hg (1009.0 mb)
Winds: from the NNW (330 degrees) at 17 MPH (15 knots; 7.7 m/s)
Visibility: 6 or more miles (10+ km)
Ceiling: at least 12,000 feet AGL
Clouds: scattered clouds at 2300 feet AGL
Weather: no significant weather observed at this time

METAR text: EFMA 250950Z AUTO 34015KT 9999 FEW026 03/M03 Q1008
Conditions at: EFMA (MARIEHAMN/ALAND , FI) observed 0950 UTC 25 March 2019
Temperature: 3.0°C (37°F)
Dewpoint: -3.0°C (27°F) [RH = 65%]
Pressure (altimeter): 29.76 inches Hg (1008.0 mb)
Winds: from the NNW (340 degrees) at 17 MPH (15 knots; 7.7 m/s)
Visibility: 6 or more miles (10+ km)
Ceiling: at least 12,000 feet AGL
Clouds: few clouds at 2600 feet AGL
Weather: no significant weather observed at this time

METAR text: EFMA 250920Z AUTO 35014KT 310V020 9999 FEW020 03/M04 Q1008
Conditions at: EFMA (MARIEHAMN/ALAND , FI) observed 0920 UTC 25 March 2019
Temperature: 3.0°C (37°F)
Dewpoint: -4.0°C (25°F) [RH = 60%]
Pressure (altimeter): 29.76 inches Hg (1008.0 mb)
Winds: from the N (350 degrees) at 16 MPH (14 knots; 7.2 m/s)
Visibility: 6 or more miles (10+ km)
Ceiling: at least 12,000 feet AGL
Clouds: few clouds at 2000 feet AGL
Weather: no significant weather observed at this time

METAR text: EFMA 250850Z AUTO 33012KT 300V360 9999 FEW017 03/M03 Q1008
Conditions at: EFMA (MARIEHAMN/ALAND , FI) observed 0850 UTC 25 March 2019
Temperature: 3.0°C (37°F)
Dewpoint: -3.0°C (27°F) [RH = 65%]
Pressure (altimeter): 29.76 inches Hg (1008.0 mb)
Winds: from the NNW (330 degrees) at 14 MPH (12 knots; 6.2 m/s)
Visibility: 6 or more miles (10+ km)
Ceiling: at least 12,000 feet AGL
Clouds: few clouds at 1700 feet AGL
Weather: no significant weather observed at this time

METAR text: EFMA 250820Z AUTO 34007KT 310V020 9999 FEW025 BKN055 01/M02 Q1007
Conditions at: EFMA (MARIEHAMN/ALAND , FI) observed 0820 UTC 25 March 2019
Temperature: 1.0°C (34°F)
Dewpoint: -2.0°C (28°F) [RH = 80%]
Pressure (altimeter): 29.73 inches Hg (1007.0 mb)
Winds: from the NNW (340 degrees) at 8 MPH (7 knots; 3.6 m/s)
Visibility: 6 or more miles (10+ km)
Ceiling: 5500 feet AGL
Clouds: few clouds at 2500 feet AGL
broken clouds at 5500 feet AGL
Weather: no significant weather observed at this time

METAR text: EFMA 250750Z AUTO 34012KT 320V020 2600 -SHSN FEW021 BKN032 BKN094 00/M02 Q1007
Conditions at: EFMA (MARIEHAMN/ALAND , FI) observed 0750 UTC 25 March 2019
Temperature: 0.0°C (32°F)
Dewpoint: -2.0°C (28°F) [RH = 86%]
Pressure (altimeter): 29.73 inches Hg (1007.0 mb)
Winds: from the NNW (340 degrees) at 14 MPH (12 knots; 6.2 m/s)
Visibility: 1.62 miles (2.61 km)
Ceiling: 3200 feet AGL
Clouds: few clouds at 2100 feet AGL
broken clouds at 3200 feet AGL
broken clouds at 9400 feet AGL
Weather: -SHSN  (light snow showers)

METAR text: EFMA 250720Z AUTO 35011KT 310V020 9999 FEW041 BKN058 02/M03 Q1006
Conditions at: EFMA (MARIEHAMN/ALAND , FI) observed 0720 UTC 25 March 2019
Temperature: 2.0°C (36°F)
Dewpoint: -3.0°C (27°F) [RH = 69%]
Pressure (altimeter): 29.70 inches Hg (1006.0 mb)
Winds: from the N (350 degrees) at 13 MPH (11 knots; 5.7 m/s)
Visibility: 6 or more miles (10+ km)
Ceiling: 5800 feet AGL
Clouds: few clouds at 4100 feet AGL
broken clouds at 5800 feet AGL
Weather: no significant weather observed at this time

METAR text: EFMA 250650Z AUTO 36011KT 330V040 9999 FEW031 BKN058 02/M03 Q1006
Conditions at: EFMA (MARIEHAMN/ALAND , FI) observed 0650 UTC 25 March 2019
Temperature: 2.0°C (36°F)
Dewpoint: -3.0°C (27°F) [RH = 69%]
Pressure (altimeter): 29.70 inches Hg (1006.0 mb)
Winds: from the N (360 degrees) at 13 MPH (11 knots; 5.7 m/s)
Visibility: 6 or more miles (10+ km)
Ceiling: 5800 feet AGL
Clouds: few clouds at 3100 feet AGL
broken clouds at 5800 feet AGL
Weather: no significant weather observed at this time

METAR text: EFMA 250620Z AUTO 36011KT CAVOK 02/M03 Q1006
Conditions at: EFMA (MARIEHAMN/ALAND , FI) observed 0620 UTC 25 March 2019
Temperature: 2.0°C (36°F)
Dewpoint: -3.0°C (27°F) [RH = 69%]
Pressure (altimeter): 29.70 inches Hg (1006.0 mb)
Winds: from the N (360 degrees) at 13 MPH (11 knots; 5.7 m/s)
Visibility: 6 or more miles (10+ km)
Ceiling: ceiling and visibility are OK
Clouds: unknown
Weather: no significant weather observed at this time

METAR text: EFMA 250550Z AUTO 35008KT CAVOK 02/M01 Q1005
Conditions at: EFMA (MARIEHAMN/ALAND , FI) observed 0550 UTC 25 March 2019
Temperature: 2.0°C (36°F)
Dewpoint: -1.0°C (30°F) [RH = 80%]
Pressure (altimeter): 29.68 inches Hg (1005.0 mb)
Winds: from the N (350 degrees) at 9 MPH (8 knots; 4.1 m/s)
Visibility: 6 or more miles (10+ km)
Ceiling: ceiling and visibility are OK
Clouds: unknown
Weather: no significant weather observed at this time

METAR text: EFMA 250520Z AUTO 34005KT 300V010 CAVOK 01/M01 Q1005
Conditions at: EFMA (MARIEHAMN/ALAND , FI) observed 0520 UTC 25 March 2019
Temperature: 1.0°C (34°F)
Dewpoint: -1.0°C (30°F) [RH = 86%]
Pressure (altimeter): 29.68 inches Hg (1005.0 mb)
Winds: from the NNW (340 degrees) at 6 MPH (5 knots; 2.6 m/s)
Visibility: 6 or more miles (10+ km)
Ceiling: ceiling and visibility are OK
Clouds: unknown
Weather: no significant weather observed at this time

METAR text: EFMA 250450Z AUTO VRB01KT CAVOK 01/M01 Q1004
Conditions at: EFMA (MARIEHAMN/ALAND , FI) observed 0450 UTC 25 March 2019
Temperature: 1.0°C (34°F)
Dewpoint: -1.0°C (30°F) [RH = 86%]
Pressure (altimeter): 29.65 inches Hg (1004.0 mb)
Winds: variable direction winds at 1 MPH (1 knots; 0.5 m/s)
Visibility: 6 or more miles (10+ km)
Ceiling: ceiling and visibility are OK
Clouds: unknown
Weather: no significant weather observed at this time

METAR text: EFMA 250420Z AUTO 29004KT 250V330 CAVOK 01/M01 Q1004
Conditions at: EFMA (MARIEHAMN/ALAND , FI) observed 0420 UTC 25 March 2019
Temperature: 1.0°C (34°F)
Dewpoint: -1.0°C (30°F) [RH = 86%]
Pressure (altimeter): 29.65 inches Hg (1004.0 mb)
Winds: from the WNW (290 degrees) at 5 MPH (4 knots; 2.1 m/s)
Visibility: 6 or more miles (10+ km)
Ceiling: ceiling and visibility are OK
Clouds: unknown
Weather: no significant weather observed at this time

METAR text: EFMA 250350Z AUTO 29005KT 260V320 CAVOK 00/M01 Q1004
Conditions at: EFMA (MARIEHAMN/ALAND , FI) observed 0350 UTC 25 March 2019
Temperature: 0.0°C (32°F)
Dewpoint: -1.0°C (30°F) [RH = 93%]
Pressure (altimeter): 29.65 inches Hg (1004.0 mb)
Winds: from the WNW (290 degrees) at 6 MPH (5 knots; 2.6 m/s)
Visibility: 6 or more miles (10+ km)
Ceiling: ceiling and visibility are OK
Clouds: unknown
Weather: no significant weather observed at this time

METAR text: EFMA 250320Z AUTO VRB01KT CAVOK M02/M03 Q1004
Conditions at: EFMA (MARIEHAMN/ALAND , FI) observed 0320 UTC 25 March 2019
Temperature: -2.0°C (28°F)
Dewpoint: -3.0°C (27°F) [RH = 93%]
Pressure (altimeter): 29.65 inches Hg (1004.0 mb)
Winds: variable direction winds at 1 MPH (1 knots; 0.5 m/s)
Visibility: 6 or more miles (10+ km)
Ceiling: ceiling and visibility are OK
Clouds: unknown
Weather: no significant weather observed at this time

METAR text: EFMA 250250Z AUTO VRB01KT CAVOK M02/M03 Q1004
Conditions at: EFMA (MARIEHAMN/ALAND , FI) observed 0250 UTC 25 March 2019
Temperature: -2.0°C (28°F)
Dewpoint: -3.0°C (27°F) [RH = 93%]
Pressure (altimeter): 29.65 inches Hg (1004.0 mb)
Winds: variable direction winds at 1 MPH (1 knots; 0.5 m/s)
Visibility: 6 or more miles (10+ km)
Ceiling: ceiling and visibility are OK
Clouds: unknown
Weather: no significant weather observed at this time

METAR text: EFMA 250220Z AUTO VRB02KT CAVOK M02/M02 Q1004
Conditions at: EFMA (MARIEHAMN/ALAND , FI) observed 0220 UTC 25 March 2019
Temperature: -2.0°C (28°F)
Dewpoint: -2.0°C (28°F) [RH = 100%]
Pressure (altimeter): 29.65 inches Hg (1004.0 mb)
Winds: variable direction winds at 2 MPH (2 knots; 1.0 m/s)
Visibility: 6 or more miles (10+ km)
Ceiling: ceiling and visibility are OK
Clouds: unknown
Weather: no significant weather observed at this time

METAR text: EFMA 250150Z AUTO VRB01KT CAVOK M01/M03 Q1004
Conditions at: EFMA (MARIEHAMN/ALAND , FI) observed 0150 UTC 25 March 2019
Temperature: -1.0°C (30°F)
Dewpoint: -3.0°C (27°F) [RH = 86%]
Pressure (altimeter): 29.65 inches Hg (1004.0 mb)
Winds: variable direction winds at 1 MPH (1 knots; 0.5 m/s)
Visibility: 6 or more miles (10+ km)
Ceiling: ceiling and visibility are OK
Clouds: unknown
Weather: no significant weather observed at this time

METAR text: EFMA 250120Z AUTO 28003KT 250V310 CAVOK 01/M01 Q1004
Conditions at: EFMA (MARIEHAMN/ALAND , FI) observed 0120 UTC 25 March 2019
Temperature: 1.0°C (34°F)
Dewpoint: -1.0°C (30°F) [RH = 86%]
Pressure (altimeter): 29.65 inches Hg (1004.0 mb)
Winds: from the W (280 degrees) at 3 MPH (3 knots; 1.5 m/s)
Visibility: 6 or more miles (10+ km)
Ceiling: ceiling and visibility are OK
Clouds: unknown
Weather: no significant weather observed at this time

METAR text: EFMA 250050Z AUTO 28005KT CAVOK 02/M01 Q1004
Conditions at: EFMA (MARIEHAMN/ALAND , FI) observed 0050 UTC 25 March 2019
Temperature: 2.0°C (36°F)
Dewpoint: -1.0°C (30°F) [RH = 80%]
Pressure (altimeter): 29.65 inches Hg (1004.0 mb)
Winds: from the W (280 degrees) at 6 MPH (5 knots; 2.6 m/s)
Visibility: 6 or more miles (10+ km)
Ceiling: ceiling and visibility are OK
Clouds: unknown
Weather: no significant weather observed at this time

METAR text: EFMA 250020Z AUTO 28004KT 240V320 CAVOK 02/M01 Q1004
Conditions at: EFMA (MARIEHAMN/ALAND , FI) observed 0020 UTC 25 March 2019
Temperature: 2.0°C (36°F)
Dewpoint: -1.0°C (30°F) [RH = 80%]
Pressure (altimeter): 29.65 inches Hg (1004.0 mb)
Winds: from the W (280 degrees) at 5 MPH (4 knots; 2.1 m/s)
Visibility: 6 or more miles (10+ km)
Ceiling: ceiling and visibility are OK
Clouds: unknown
Weather: no significant weather observed at this time

Forecast for: EFMA (MARIEHAMN/ALAND , FI)
Text: TAF EFMA 261126Z 2612/2621 36010KT 9999 FEW037
Forecast period: 1200 to 1900 UTC 26 March 2019
Forecast type: FROM: standard forecast or significant change
Winds: from the N (360 degrees) at 12 MPH (10 knots; 5.1 m/s)
Visibility: 6 or more miles 10+ km)
Ceiling: at least 12,000 feet AGL
Clouds: few clouds at 3700 feet AGL
Weather: no significant weather forecast for this period
Text: BECMG 2619/2621 24003KT
Forecast period: 1900 to 2100 UTC 26 March 2019
Forecast type: BECOMING: Conditions expected to become as follows by 2100 UTC 26 March 2019
Winds: from the WSW (240 degrees) at 3 MPH (3 knots; 1.5 m/s)
Visibility: 6 or more miles 10+ km)
Ceiling: at least 12,000 feet AGL
Clouds: few clouds at 3700 feet AGL
Weather: no significant weather forecast for this period